sensor_id;sensor_type;location;lat;lon;timestamp;P1;durP1;ratioP1;P2;durP2;ratioP2
53261;SDS011;39658;51.090;-1.786;2023-04-24T00:01:48;37.80;;;13.55;;
53261;SDS011;39658;51.090;-1.786;2023-04-24T00:04:16;34.17;;;14.63;;
53261;SDS011;39658;51.090;-1.786;2023-04-24T00:06:43;37.80;;;13.13;;
53261;SDS011;39658;51.090;-1.786;2023-04-24T00:09:14;40.38;;;13.88;;
53261;SDS011;39658;51.090;-1.786;2023-04-24T00:11:41;41.60;;;15.93;;
53261;SDS011;39658;51.090;-1.786;2023-04-24T00:14:08;37.70;;;14.02;;
53261;SDS011;39658;51.090;-1.786;2023-04-24T00:16:35;46.67;;;14.95;;
53261;SDS011;39658;51.090;-1.786;2023-04-24T00:19:01;43.03;;;13.77;;
53261;SDS011;39658;51.090;-1.786;2023-04-24T00:21:29;38.63;;;15.25;;
53261;SDS011;39658;51.090;-1.786;2023-04-24T00:23:57;39.80;;;14.57;;
53261;SDS011;39658;51.090;-1.786;2023-04-24T00:26:24;41.08;;;15.65;;
53261;SDS011;39658;51.090;-1.786;2023-04-24T00:28:51;40.03;;;14.90;;
53261;SDS011;39658;51.090;-1.786;2023-04-24T00:31:18;44.60;;;17.27;;
53261;SDS011;39658;51.090;-1.786;2023-04-24T00:33:45;45.42;;;16.40;;
53261;SDS011;39658;51.090;-1.786;2023-04-24T00:36:12;43.33;;;16.40;;
53261;SDS011;39658;51.090;-1.786;2023-04-24T00:38:40;49.28;;;16.52;;
53261;SDS011;39658;51.090;-1.786;2023-04-24T00:41:06;42.00;;;15.00;;
53261;SDS011;39658;51.090;-1.786;2023-04-24T00:43:34;39.20;;;14.05;;
53261;SDS011;39658;51.090;-1.786;2023-04-24T00:46:01;41.78;;;14.52;;
53261;SDS011;39658;51.090;-1.786;2023-04-24T00:48:27;44.20;;;15.82;;
53261;SDS011;39658;51.090;-1.786;2023-04-24T00:50:54;45.38;;;17.05;;
53261;SDS011;39658;51.090;-1.786;2023-04-24T00:53:22;38.33;;;14.82;;
53261;SDS011;39658;51.090;-1.786;2023-04-24T00:55:50;39.50;;;16.20;;
53261;SDS011;39658;51.090;-1.786;2023-04-24T00:58:17;36.40;;;14.32;;
53261;SDS011;39658;51.090;-1.786;2023-04-24T01:00:44;39.03;;;13.73;;
53261;SDS011;39658;51.090;-1.786;2023-04-24T01:03:12;37.38;;;14.32;;
53261;SDS011;39658;51.090;-1.786;2023-04-24T01:05:39;38.63;;;13.30;;
53261;SDS011;39658;51.090;-1.786;2023-04-24T01:08:07;34.70;;;13.23;;
53261;SDS011;39658;51.090;-1.786;2023-04-24T01:10:33;38.28;;;15.25;;
53261;SDS011;39658;51.090;-1.786;2023-04-24T01:13:04;35.50;;;13.63;;
53261;SDS011;39658;51.090;-1.786;2023-04-24T01:15:31;34.17;;;14.43;;
53261;SDS011;39658;51.090;-1.786;2023-04-24T01:17:58;39.95;;;13.15;;
53261;SDS011;39658;51.090;-1.786;2023-04-24T01:20:25;35.30;;;14.75;;
53261;SDS011;39658;51.090;-1.786;2023-04-24T01:22:53;34.53;;;14.45;;
53261;SDS011;39658;51.090;-1.786;2023-04-24T01:25:21;32.60;;;12.75;;
53261;SDS011;39658;51.090;-1.786;2023-04-24T01:27:48;34.03;;;12.73;;
53261;SDS011;39658;51.090;-1.786;2023-04-24T01:30:15;37.22;;;13.95;;
53261;SDS011;39658;51.090;-1.786;2023-04-24T01:32:41;36.78;;;14.38;;
53261;SDS011;39658;51.090;-1.786;2023-04-24T01:35:10;35.95;;;12.93;;
53261;SDS011;39658;51.090;-1.786;2023-04-24T01:37:37;41.50;;;15.10;;
53261;SDS011;39658;51.090;-1.786;2023-04-24T01:40:06;36.17;;;15.18;;
53261;SDS011;39658;51.090;-1.786;2023-04-24T01:42:34;36.03;;;12.30;;
53261;SDS011;39658;51.090;-1.786;2023-04-24T01:45:01;35.38;;;13.30;;
53261;SDS011;39658;51.090;-1.786;2023-04-24T01:47:30;31.63;;;12.05;;
53261;SDS011;39658;51.090;-1.786;2023-04-24T01:49:57;40.65;;;14.07;;
53261;SDS011;39658;51.090;-1.786;2023-04-24T01:52:24;35.28;;;12.90;;
53261;SDS011;39658;51.090;-1.786;2023-04-24T01:54:52;36.42;;;12.93;;
53261;SDS011;39658;51.090;-1.786;2023-04-24T01:57:22;32.40;;;12.80;;
53261;SDS011;39658;51.090;-1.786;2023-04-24T01:59:49;32.45;;;11.80;;
53261;SDS011;39658;51.090;-1.786;2023-04-24T02:02:16;32.90;;;12.35;;
53261;SDS011;39658;51.090;-1.786;2023-04-24T02:04:43;32.30;;;14.25;;
53261;SDS011;39658;51.090;-1.786;2023-04-24T02:07:10;35.53;;;13.32;;
53261;SDS011;39658;51.090;-1.786;2023-04-24T02:09:37;32.58;;;11.05;;
53261;SDS011;39658;51.090;-1.786;2023-04-24T02:12:04;34.40;;;12.88;;
53261;SDS011;39658;51.090;-1.786;2023-04-24T02:14:32;38.03;;;12.30;;
53261;SDS011;39658;51.090;-1.786;2023-04-24T02:16:59;35.85;;;12.00;;
53261;SDS011;39658;51.090;-1.786;2023-04-24T02:19:25;39.03;;;13.95;;
53261;SDS011;39658;51.090;-1.786;2023-04-24T02:21:52;40.30;;;14.18;;
53261;SDS011;39658;51.090;-1.786;2023-04-24T02:24:19;39.35;;;12.32;;
53261;SDS011;39658;51.090;-1.786;2023-04-24T02:26:46;33.40;;;12.45;;
53261;SDS011;39658;51.090;-1.786;2023-04-24T02:29:13;34.90;;;12.00;;
53261;SDS011;39658;51.090;-1.786;2023-04-24T02:31:41;41.05;;;13.68;;
53261;SDS011;39658;51.090;-1.786;2023-04-24T02:34:08;35.92;;;12.30;;
53261;SDS011;39658;51.090;-1.786;2023-04-24T02:36:35;38.50;;;14.02;;
53261;SDS011;39658;51.090;-1.786;2023-04-24T02:39:02;38.95;;;14.23;;
53261;SDS011;39658;51.090;-1.786;2023-04-24T02:41:29;44.92;;;15.05;;
53261;SDS011;39658;51.090;-1.786;2023-04-24T02:43:57;37.05;;;12.57;;
53261;SDS011;39658;51.090;-1.786;2023-04-24T02:46:24;42.42;;;14.85;;
53261;SDS011;39658;51.090;-1.786;2023-04-24T02:48:52;30.63;;;11.65;;
53261;SDS011;39658;51.090;-1.786;2023-04-24T02:51:19;36.30;;;12.38;;
53261;SDS011;39658;51.090;-1.786;2023-04-24T02:53:45;32.85;;;13.18;;
53261;SDS011;39658;51.090;-1.786;2023-04-24T02:56:12;37.95;;;13.18;;
53261;SDS011;39658;51.090;-1.786;2023-04-24T02:58:39;32.95;;;13.05;;
53261;SDS011;39658;51.090;-1.786;2023-04-24T03:01:07;34.53;;;12.05;;
53261;SDS011;39658;51.090;-1.786;2023-04-24T03:03:34;32.97;;;13.35;;
53261;SDS011;39658;51.090;-1.786;2023-04-24T03:06:03;33.20;;;12.35;;
53261;SDS011;39658;51.090;-1.786;2023-04-24T03:08:30;33.22;;;12.43;;
53261;SDS011;39658;51.090;-1.786;2023-04-24T03:10:57;33.05;;;12.02;;
53261;SDS011;39658;51.090;-1.786;2023-04-24T03:13:24;38.60;;;14.20;;
53261;SDS011;39658;51.090;-1.786;2023-04-24T03:15:51;33.90;;;12.10;;
53261;SDS011;39658;51.090;-1.786;2023-04-24T03:18:18;35.15;;;13.38;;
53261;SDS011;39658;51.090;-1.786;2023-04-24T03:20:45;39.63;;;12.98;;
53261;SDS011;39658;51.090;-1.786;2023-04-24T03:23:13;30.08;;;11.27;;
53261;SDS011;39658;51.090;-1.786;2023-04-24T03:25:40;32.28;;;12.70;;
53261;SDS011;39658;51.090;-1.786;2023-04-24T03:28:07;31.88;;;11.98;;
53261;SDS011;39658;51.090;-1.786;2023-04-24T03:30:34;29.45;;;11.68;;
53261;SDS011;39658;51.090;-1.786;2023-04-24T03:33:01;33.58;;;11.70;;
53261;SDS011;39658;51.090;-1.786;2023-04-24T03:35:28;36.60;;;11.30;;
53261;SDS011;39658;51.090;-1.786;2023-04-24T03:37:55;34.70;;;13.20;;
53261;SDS011;39658;51.090;-1.786;2023-04-24T03:40:23;31.48;;;12.10;;
53261;SDS011;39658;51.090;-1.786;2023-04-24T03:42:49;33.38;;;12.02;;
53261;SDS011;39658;51.090;-1.786;2023-04-24T03:45:16;37.28;;;12.77;;
53261;SDS011;39658;51.090;-1.786;2023-04-24T03:47:43;29.42;;;12.80;;
53261;SDS011;39658;51.090;-1.786;2023-04-24T03:50:10;31.98;;;12.52;;
53261;SDS011;39658;51.090;-1.786;2023-04-24T03:52:36;34.45;;;12.93;;
53261;SDS011;39658;51.090;-1.786;2023-04-24T03:55:03;39.22;;;14.05;;
53261;SDS011;39658;51.090;-1.786;2023-04-24T03:57:32;31.67;;;12.50;;
53261;SDS011;39658;51.090;-1.786;2023-04-24T03:59:59;34.05;;;13.35;;
53261;SDS011;39658;51.090;-1.786;2023-04-24T04:02:29;34.70;;;12.48;;
53261;SDS011;39658;51.090;-1.786;2023-04-24T04:04:56;36.78;;;11.30;;
53261;SDS011;39658;51.090;-1.786;2023-04-24T04:07:23;38.80;;;13.30;;
53261;SDS011;39658;51.090;-1.786;2023-04-24T04:09:50;37.42;;;12.35;;
53261;SDS011;39658;51.090;-1.786;2023-04-24T04:12:17;32.75;;;11.15;;
53261;SDS011;39658;51.090;-1.786;2023-04-24T04:14:45;27.42;;;12.60;;
53261;SDS011;39658;51.090;-1.786;2023-04-24T04:17:11;35.53;;;10.75;;
53261;SDS011;39658;51.090;-1.786;2023-04-24T04:19:38;30.90;;;11.40;;
53261;SDS011;39658;51.090;-1.786;2023-04-24T04:22:07;31.80;;;10.63;;
53261;SDS011;39658;51.090;-1.786;2023-04-24T04:24:34;29.33;;;11.68;;
53261;SDS011;39658;51.090;-1.786;2023-04-24T04:27:03;32.85;;;11.95;;
53261;SDS011;39658;51.090;-1.786;2023-04-24T04:29:29;31.13;;;10.85;;
53261;SDS011;39658;51.090;-1.786;2023-04-24T04:31:58;33.63;;;10.27;;
53261;SDS011;39658;51.090;-1.786;2023-04-24T04:34:24;28.70;;;10.73;;
53261;SDS011;39658;51.090;-1.786;2023-04-24T04:36:51;34.30;;;12.75;;
53261;SDS011;39658;51.090;-1.786;2023-04-24T04:39:18;37.95;;;13.00;;
53261;SDS011;39658;51.090;-1.786;2023-04-24T04:41:44;34.45;;;12.18;;
53261;SDS011;39658;51.090;-1.786;2023-04-24T04:44:13;34.92;;;11.95;;
53261;SDS011;39658;51.090;-1.786;2023-04-24T04:46:40;38.75;;;12.60;;
53261;SDS011;39658;51.090;-1.786;2023-04-24T04:49:08;35.80;;;11.55;;
53261;SDS011;39658;51.090;-1.786;2023-04-24T04:51:36;34.13;;;13.55;;
53261;SDS011;39658;51.090;-1.786;2023-04-24T04:54:02;37.13;;;13.00;;
53261;SDS011;39658;51.090;-1.786;2023-04-24T04:56:29;39.03;;;13.88;;
53261;SDS011;39658;51.090;-1.786;2023-04-24T04:58:56;36.65;;;12.05;;
53261;SDS011;39658;51.090;-1.786;2023-04-24T05:01:24;32.05;;;11.32;;
53261;SDS011;39658;51.090;-1.786;2023-04-24T05:03:52;39.20;;;14.55;;
53261;SDS011;39658;51.090;-1.786;2023-04-24T05:06:20;38.28;;;14.38;;
53261;SDS011;39658;51.090;-1.786;2023-04-24T05:08:47;31.88;;;11.43;;
53261;SDS011;39658;51.090;-1.786;2023-04-24T05:11:14;34.53;;;12.43;;
53261;SDS011;39658;51.090;-1.786;2023-04-24T05:13:41;39.03;;;12.75;;
53261;SDS011;39658;51.090;-1.786;2023-04-24T05:16:07;33.25;;;11.13;;
53261;SDS011;39658;51.090;-1.786;2023-04-24T05:18:35;30.90;;;11.82;;
53261;SDS011;39658;51.090;-1.786;2023-04-24T05:21:01;38.78;;;14.63;;
53261;SDS011;39658;51.090;-1.786;2023-04-24T05:23:30;37.88;;;12.90;;
53261;SDS011;39658;51.090;-1.786;2023-04-24T05:25:56;38.05;;;14.70;;
53261;SDS011;39658;51.090;-1.786;2023-04-24T05:28:23;39.88;;;14.18;;
53261;SDS011;39658;51.090;-1.786;2023-04-24T05:30:53;36.13;;;12.77;;
53261;SDS011;39658;51.090;-1.786;2023-04-24T05:33:20;41.85;;;14.15;;
53261;SDS011;39658;51.090;-1.786;2023-04-24T05:35:47;46.72;;;12.65;;
53261;SDS011;39658;51.090;-1.786;2023-04-24T05:38:14;41.78;;;13.93;;
53261;SDS011;39658;51.090;-1.786;2023-04-24T05:40:44;38.22;;;14.95;;
53261;SDS011;39658;51.090;-1.786;2023-04-24T05:43:11;39.08;;;13.65;;
53261;SDS011;39658;51.090;-1.786;2023-04-24T05:45:37;35.42;;;14.10;;
53261;SDS011;39658;51.090;-1.786;2023-04-24T05:48:04;35.40;;;12.93;;
53261;SDS011;39658;51.090;-1.786;2023-04-24T05:50:31;36.70;;;13.20;;
53261;SDS011;39658;51.090;-1.786;2023-04-24T05:52:58;35.08;;;12.38;;
53261;SDS011;39658;51.090;-1.786;2023-04-24T05:55:26;38.35;;;13.20;;
53261;SDS011;39658;51.090;-1.786;2023-04-24T05:57:54;37.10;;;13.13;;
53261;SDS011;39658;51.090;-1.786;2023-04-24T06:00:21;42.20;;;15.13;;
53261;SDS011;39658;51.090;-1.786;2023-04-24T06:02:50;46.70;;;16.73;;
53261;SDS011;39658;51.090;-1.786;2023-04-24T06:05:17;44.53;;;16.85;;
53261;SDS011;39658;51.090;-1.786;2023-04-24T06:07:44;43.17;;;15.60;;
53261;SDS011;39658;51.090;-1.786;2023-04-24T06:10:11;35.35;;;14.60;;
53261;SDS011;39658;51.090;-1.786;2023-04-24T06:12:38;42.33;;;15.00;;
53261;SDS011;39658;51.090;-1.786;2023-04-24T06:15:07;42.53;;;15.93;;
53261;SDS011;39658;51.090;-1.786;2023-04-24T06:17:34;42.78;;;14.48;;
53261;SDS011;39658;51.090;-1.786;2023-04-24T06:20:01;37.10;;;14.57;;
53261;SDS011;39658;51.090;-1.786;2023-04-24T06:22:29;39.75;;;15.63;;
53261;SDS011;39658;51.090;-1.786;2023-04-24T06:24:56;33.88;;;14.25;;
53261;SDS011;39658;51.090;-1.786;2023-04-24T06:27:23;33.17;;;13.82;;
53261;SDS011;39658;51.090;-1.786;2023-04-24T06:29:49;32.85;;;13.85;;
53261;SDS011;39658;51.090;-1.786;2023-04-24T06:32:20;32.80;;;13.75;;
53261;SDS011;39658;51.090;-1.786;2023-04-24T06:34:48;34.35;;;13.43;;
53261;SDS011;39658;51.090;-1.786;2023-04-24T06:37:14;34.17;;;11.68;;
53261;SDS011;39658;51.090;-1.786;2023-04-24T06:39:41;29.77;;;12.00;;
53261;SDS011;39658;51.090;-1.786;2023-04-24T06:42:08;26.98;;;12.40;;
53261;SDS011;39658;51.090;-1.786;2023-04-24T06:44:35;34.95;;;13.48;;
53261;SDS011;39658;51.090;-1.786;2023-04-24T06:47:05;34.90;;;13.93;;
53261;SDS011;39658;51.090;-1.786;2023-04-24T06:49:34;36.08;;;14.30;;
53261;SDS011;39658;51.090;-1.786;2023-04-24T06:52:01;28.48;;;12.10;;
53261;SDS011;39658;51.090;-1.786;2023-04-24T06:54:28;32.70;;;12.93;;
53261;SDS011;39658;51.090;-1.786;2023-04-24T06:56:55;31.42;;;13.38;;
53261;SDS011;39658;51.090;-1.786;2023-04-24T06:59:22;29.95;;;11.38;;
53261;SDS011;39658;51.090;-1.786;2023-04-24T07:01:49;31.33;;;12.25;;
53261;SDS011;39658;51.090;-1.786;2023-04-24T07:04:16;34.70;;;12.27;;
53261;SDS011;39658;51.090;-1.786;2023-04-24T07:06:45;31.50;;;11.00;;
53261;SDS011;39658;51.090;-1.786;2023-04-24T07:09:12;29.20;;;12.75;;
53261;SDS011;39658;51.090;-1.786;2023-04-24T07:11:41;29.05;;;11.52;;
53261;SDS011;39658;51.090;-1.786;2023-04-24T07:14:07;28.95;;;12.45;;
53261;SDS011;39658;51.090;-1.786;2023-04-24T07:16:35;29.98;;;12.65;;
53261;SDS011;39658;51.090;-1.786;2023-04-24T07:19:01;34.78;;;13.75;;
53261;SDS011;39658;51.090;-1.786;2023-04-24T07:21:28;30.58;;;12.23;;
53261;SDS011;39658;51.090;-1.786;2023-04-24T07:23:57;29.90;;;12.38;;
53261;SDS011;39658;51.090;-1.786;2023-04-24T07:26:25;32.25;;;14.23;;
53261;SDS011;39658;51.090;-1.786;2023-04-24T07:28:52;32.22;;;13.52;;
53261;SDS011;39658;51.090;-1.786;2023-04-24T07:31:18;34.60;;;13.82;;
53261;SDS011;39658;51.090;-1.786;2023-04-24T07:33:46;30.30;;;13.45;;
53261;SDS011;39658;51.090;-1.786;2023-04-24T07:36:12;31.60;;;12.23;;
53261;SDS011;39658;51.090;-1.786;2023-04-24T07:38:44;25.63;;;11.40;;
53261;SDS011;39658;51.090;-1.786;2023-04-24T07:41:12;23.40;;;11.65;;
53261;SDS011;39658;51.090;-1.786;2023-04-24T07:43:39;20.85;;;9.93;;
53261;SDS011;39658;51.090;-1.786;2023-04-24T07:46:06;18.02;;;8.13;;
53261;SDS011;39658;51.090;-1.786;2023-04-24T07:48:33;20.30;;;9.40;;
53261;SDS011;39658;51.090;-1.786;2023-04-24T07:50:59;18.88;;;9.07;;
53261;SDS011;39658;51.090;-1.786;2023-04-24T07:53:26;27.17;;;9.98;;
53261;SDS011;39658;51.090;-1.786;2023-04-24T07:55:53;21.77;;;9.98;;
53261;SDS011;39658;51.090;-1.786;2023-04-24T07:58:22;21.65;;;10.13;;
53261;SDS011;39658;51.090;-1.786;2023-04-24T08:00:48;20.60;;;9.60;;
53261;SDS011;39658;51.090;-1.786;2023-04-24T08:03:15;21.08;;;9.23;;
53261;SDS011;39658;51.090;-1.786;2023-04-24T08:05:44;19.60;;;8.77;;
53261;SDS011;39658;51.090;-1.786;2023-04-24T08:08:11;19.05;;;9.80;;
53261;SDS011;39658;51.090;-1.786;2023-04-24T08:10:38;18.58;;;9.60;;
53261;SDS011;39658;51.090;-1.786;2023-04-24T08:13:05;19.13;;;9.85;;
53261;SDS011;39658;51.090;-1.786;2023-04-24T08:15:33;18.35;;;8.45;;
53261;SDS011;39658;51.090;-1.786;2023-04-24T08:17:59;19.80;;;9.57;;
53261;SDS011;39658;51.090;-1.786;2023-04-24T08:20:26;20.83;;;9.85;;
53261;SDS011;39658;51.090;-1.786;2023-04-24T08:22:53;21.50;;;9.88;;
53261;SDS011;39658;51.090;-1.786;2023-04-24T08:25:21;20.17;;;10.35;;
53261;SDS011;39658;51.090;-1.786;2023-04-24T08:27:49;19.98;;;9.10;;
53261;SDS011;39658;51.090;-1.786;2023-04-24T08:30:16;22.77;;;10.00;;
53261;SDS011;39658;51.090;-1.786;2023-04-24T08:32:45;23.40;;;8.82;;
53261;SDS011;39658;51.090;-1.786;2023-04-24T08:35:11;20.83;;;9.43;;
53261;SDS011;39658;51.090;-1.786;2023-04-24T08:37:38;23.80;;;9.43;;
53261;SDS011;39658;51.090;-1.786;2023-04-24T08:40:06;17.52;;;9.40;;
53261;SDS011;39658;51.090;-1.786;2023-04-24T08:42:40;22.20;;;9.45;;
53261;SDS011;39658;51.090;-1.786;2023-04-24T08:45:08;18.75;;;10.27;;
53261;SDS011;39658;51.090;-1.786;2023-04-24T08:47:36;20.30;;;8.95;;
53261;SDS011;39658;51.090;-1.786;2023-04-24T08:50:06;18.60;;;8.48;;
53261;SDS011;39658;51.090;-1.786;2023-04-24T08:52:34;20.90;;;10.32;;
53261;SDS011;39658;51.090;-1.786;2023-04-24T08:55:02;20.00;;;9.25;;
53261;SDS011;39658;51.090;-1.786;2023-04-24T08:57:29;21.00;;;10.20;;
53261;SDS011;39658;51.090;-1.786;2023-04-24T08:59:58;23.52;;;11.40;;
53261;SDS011;39658;51.090;-1.786;2023-04-24T09:02:25;23.63;;;11.57;;
53261;SDS011;39658;51.090;-1.786;2023-04-24T09:04:52;23.10;;;10.27;;
53261;SDS011;39658;51.090;-1.786;2023-04-24T09:07:21;27.45;;;12.45;;
53261;SDS011;39658;51.090;-1.786;2023-04-24T09:09:50;26.38;;;12.57;;
53261;SDS011;39658;51.090;-1.786;2023-04-24T09:12:17;29.95;;;11.18;;
53261;SDS011;39658;51.090;-1.786;2023-04-24T09:14:45;27.50;;;12.07;;
53261;SDS011;39658;51.090;-1.786;2023-04-24T09:17:12;24.60;;;10.85;;
53261;SDS011;39658;51.090;-1.786;2023-04-24T09:19:39;24.05;;;11.93;;
53261;SDS011;39658;51.090;-1.786;2023-04-24T09:22:06;30.80;;;12.80;;
53261;SDS011;39658;51.090;-1.786;2023-04-24T09:24:35;23.98;;;11.73;;
53261;SDS011;39658;51.090;-1.786;2023-04-24T09:27:02;24.63;;;12.10;;
53261;SDS011;39658;51.090;-1.786;2023-04-24T09:29:29;22.88;;;11.05;;
53261;SDS011;39658;51.090;-1.786;2023-04-24T09:31:57;23.00;;;11.55;;
53261;SDS011;39658;51.090;-1.786;2023-04-24T09:34:25;25.58;;;12.35;;
53261;SDS011;39658;51.090;-1.786;2023-04-24T09:36:53;23.35;;;12.75;;
53261;SDS011;39658;51.090;-1.786;2023-04-24T09:39:20;19.45;;;10.63;;
53261;SDS011;39658;51.090;-1.786;2023-04-24T09:41:49;20.00;;;10.10;;
53261;SDS011;39658;51.090;-1.786;2023-04-24T09:44:17;24.48;;;10.68;;
53261;SDS011;39658;51.090;-1.786;2023-04-24T09:46:53;24.02;;;10.60;;
53261;SDS011;39658;51.090;-1.786;2023-04-24T09:49:22;20.38;;;10.13;;
53261;SDS011;39658;51.090;-1.786;2023-04-24T09:51:50;20.00;;;10.43;;
53261;SDS011;39658;51.090;-1.786;2023-04-24T09:54:17;19.25;;;9.23;;
53261;SDS011;39658;51.090;-1.786;2023-04-24T09:56:46;17.23;;;8.68;;
53261;SDS011;39658;51.090;-1.786;2023-04-24T09:59:16;18.73;;;8.85;;
53261;SDS011;39658;51.090;-1.786;2023-04-24T10:01:44;15.13;;;7.82;;
53261;SDS011;39658;51.090;-1.786;2023-04-24T10:04:18;17.42;;;8.50;;
53261;SDS011;39658;51.090;-1.786;2023-04-24T10:06:46;15.40;;;9.05;;
53261;SDS011;39658;51.090;-1.786;2023-04-24T10:09:13;18.08;;;8.85;;
53261;SDS011;39658;51.090;-1.786;2023-04-24T10:11:41;12.77;;;8.27;;
53261;SDS011;39658;51.090;-1.786;2023-04-24T10:14:10;15.65;;;7.82;;
53261;SDS011;39658;51.090;-1.786;2023-04-24T10:16:40;15.55;;;7.97;;
53261;SDS011;39658;51.090;-1.786;2023-04-24T10:19:08;14.10;;;8.13;;
53261;SDS011;39658;51.090;-1.786;2023-04-24T10:21:36;15.85;;;7.45;;
53261;SDS011;39658;51.090;-1.786;2023-04-24T10:24:07;20.27;;;9.15;;
53261;SDS011;39658;51.090;-1.786;2023-04-24T10:26:34;15.65;;;8.30;;
53261;SDS011;39658;51.090;-1.786;2023-04-24T10:29:02;16.80;;;10.40;;
53261;SDS011;39658;51.090;-1.786;2023-04-24T10:31:34;17.35;;;9.25;;
53261;SDS011;39658;51.090;-1.786;2023-04-24T10:34:03;17.27;;;8.80;;
53261;SDS011;39658;51.090;-1.786;2023-04-24T10:36:31;14.82;;;7.65;;
53261;SDS011;39658;51.090;-1.786;2023-04-24T10:39:00;15.60;;;7.57;;
53261;SDS011;39658;51.090;-1.786;2023-04-24T10:41:29;16.23;;;7.68;;
53261;SDS011;39658;51.090;-1.786;2023-04-24T10:44:06;16.25;;;7.97;;
53261;SDS011;39658;51.090;-1.786;2023-04-24T10:46:34;16.05;;;8.63;;
53261;SDS011;39658;51.090;-1.786;2023-04-24T10:49:04;15.88;;;8.75;;
53261;SDS011;39658;51.090;-1.786;2023-04-24T10:51:44;18.05;;;7.75;;
53261;SDS011;39658;51.090;-1.786;2023-04-24T10:54:25;18.52;;;7.45;;
53261;SDS011;39658;51.090;-1.786;2023-04-24T10:56:53;13.73;;;7.72;;
53261;SDS011;39658;51.090;-1.786;2023-04-24T11:00:19;17.17;;;8.45;;
53261;SDS011;39658;51.090;-1.786;2023-04-24T11:02:47;15.38;;;7.97;;
53261;SDS011;39658;51.090;-1.786;2023-04-24T11:05:17;20.50;;;9.35;;
53261;SDS011;39658;51.090;-1.786;2023-04-24T11:10:38;16.85;;;8.80;;
53261;SDS011;39658;51.090;-1.786;2023-04-24T11:13:10;15.15;;;8.15;;
53261;SDS011;39658;51.090;-1.786;2023-04-24T11:15:41;14.27;;;7.65;;
53261;SDS011;39658;51.090;-1.786;2023-04-24T11:18:12;15.25;;;8.73;;
53261;SDS011;39658;51.090;-1.786;2023-04-24T11:20:42;14.23;;;7.20;;
53261;SDS011;39658;51.090;-1.786;2023-04-24T11:23:11;14.95;;;6.90;;
53261;SDS011;39658;51.090;-1.786;2023-04-24T11:25:39;14.00;;;6.63;;
53261;SDS011;39658;51.090;-1.786;2023-04-24T11:28:07;14.55;;;7.22;;
53261;SDS011;39658;51.090;-1.786;2023-04-24T11:30:41;15.43;;;8.25;;
53261;SDS011;39658;51.090;-1.786;2023-04-24T11:33:07;14.48;;;7.80;;
53261;SDS011;39658;51.090;-1.786;2023-04-24T11:35:35;16.73;;;8.65;;
53261;SDS011;39658;51.090;-1.786;2023-04-24T11:38:06;18.45;;;9.32;;
53261;SDS011;39658;51.090;-1.786;2023-04-24T11:40:33;17.63;;;8.48;;
53261;SDS011;39658;51.090;-1.786;2023-04-24T11:43:00;21.40;;;9.00;;
53261;SDS011;39658;51.090;-1.786;2023-04-24T11:45:28;18.02;;;9.38;;
53261;SDS011;39658;51.090;-1.786;2023-04-24T11:47:55;18.27;;;8.48;;
53261;SDS011;39658;51.090;-1.786;2023-04-24T11:50:23;13.30;;;5.57;;
53261;SDS011;39658;51.090;-1.786;2023-04-24T11:52:52;13.13;;;5.50;;
53261;SDS011;39658;51.090;-1.786;2023-04-24T11:55:25;10.30;;;5.68;;
53261;SDS011;39658;51.090;-1.786;2023-04-24T11:57:54;12.68;;;5.45;;
53261;SDS011;39658;51.090;-1.786;2023-04-24T12:00:23;10.57;;;4.85;;
53261;SDS011;39658;51.090;-1.786;2023-04-24T12:02:51;13.52;;;5.65;;
53261;SDS011;39658;51.090;-1.786;2023-04-24T12:05:30;10.80;;;4.50;;
53261;SDS011;39658;51.090;-1.786;2023-04-24T12:07:57;8.15;;;4.00;;
53261;SDS011;39658;51.090;-1.786;2023-04-24T12:10:26;6.07;;;3.10;;
53261;SDS011;39658;51.090;-1.786;2023-04-24T12:12:55;9.60;;;3.47;;
53261;SDS011;39658;51.090;-1.786;2023-04-24T12:15:23;6.22;;;3.67;;
53261;SDS011;39658;51.090;-1.786;2023-04-24T12:17:51;10.82;;;3.58;;
53261;SDS011;39658;51.090;-1.786;2023-04-24T12:20:23;7.72;;;4.25;;
53261;SDS011;39658;51.090;-1.786;2023-04-24T12:22:52;11.30;;;4.40;;
53261;SDS011;39658;51.090;-1.786;2023-04-24T12:25:20;11.38;;;5.50;;
53261;SDS011;39658;51.090;-1.786;2023-04-24T12:27:53;11.45;;;5.45;;
53261;SDS011;39658;51.090;-1.786;2023-04-24T12:30:21;12.43;;;5.00;;
53261;SDS011;39658;51.090;-1.786;2023-04-24T12:32:52;11.07;;;4.07;;
53261;SDS011;39658;51.090;-1.786;2023-04-24T12:35:20;10.68;;;4.60;;
53261;SDS011;39658;51.090;-1.786;2023-04-24T12:37:49;13.55;;;5.80;;
53261;SDS011;39658;51.090;-1.786;2023-04-24T12:40:17;10.02;;;4.85;;
53261;SDS011;39658;51.090;-1.786;2023-04-24T12:42:45;7.53;;;3.10;;
53261;SDS011;39658;51.090;-1.786;2023-04-24T12:45:15;8.40;;;3.30;;
53261;SDS011;39658;51.090;-1.786;2023-04-24T12:47:42;10.20;;;3.90;;
53261;SDS011;39658;51.090;-1.786;2023-04-24T12:50:10;8.05;;;4.50;;
53261;SDS011;39658;51.090;-1.786;2023-04-24T12:52:38;10.77;;;4.25;;
53261;SDS011;39658;51.090;-1.786;2023-04-24T12:55:06;8.90;;;4.03;;
53261;SDS011;39658;51.090;-1.786;2023-04-24T12:57:34;9.07;;;3.90;;
53261;SDS011;39658;51.090;-1.786;2023-04-24T13:00:02;9.15;;;2.53;;
53261;SDS011;39658;51.090;-1.786;2023-04-24T13:02:33;7.03;;;3.00;;
53261;SDS011;39658;51.090;-1.786;2023-04-24T13:05:01;6.47;;;2.90;;
53261;SDS011;39658;51.090;-1.786;2023-04-24T13:07:28;7.60;;;3.50;;
53261;SDS011;39658;51.090;-1.786;2023-04-24T13:09:55;7.22;;;2.95;;
53261;SDS011;39658;51.090;-1.786;2023-04-24T13:12:23;8.48;;;3.90;;
53261;SDS011;39658;51.090;-1.786;2023-04-24T13:14:51;10.82;;;4.00;;
53261;SDS011;39658;51.090;-1.786;2023-04-24T13:17:18;9.18;;;4.53;;
53261;SDS011;39658;51.090;-1.786;2023-04-24T13:19:46;9.75;;;3.72;;
53261;SDS011;39658;51.090;-1.786;2023-04-24T13:22:16;10.13;;;3.78;;
53261;SDS011;39658;51.090;-1.786;2023-04-24T13:24:44;9.82;;;4.00;;
53261;SDS011;39658;51.090;-1.786;2023-04-24T13:27:10;8.20;;;3.85;;
53261;SDS011;39658;51.090;-1.786;2023-04-24T13:29:37;10.50;;;4.72;;
53261;SDS011;39658;51.090;-1.786;2023-04-24T13:32:04;10.43;;;4.90;;
53261;SDS011;39658;51.090;-1.786;2023-04-24T13:34:31;12.05;;;3.90;;
53261;SDS011;39658;51.090;-1.786;2023-04-24T13:37:00;8.25;;;3.90;;
53261;SDS011;39658;51.090;-1.786;2023-04-24T13:39:28;9.73;;;3.92;;
53261;SDS011;39658;51.090;-1.786;2023-04-24T13:41:55;9.25;;;4.65;;
53261;SDS011;39658;51.090;-1.786;2023-04-24T13:44:23;10.15;;;4.53;;
53261;SDS011;39658;51.090;-1.786;2023-04-24T13:46:50;8.90;;;4.85;;
53261;SDS011;39658;51.090;-1.786;2023-04-24T13:49:19;10.68;;;3.90;;
53261;SDS011;39658;51.090;-1.786;2023-04-24T13:51:47;10.38;;;4.95;;
53261;SDS011;39658;51.090;-1.786;2023-04-24T13:54:15;9.05;;;4.10;;
53261;SDS011;39658;51.090;-1.786;2023-04-24T13:56:42;10.65;;;4.70;;
53261;SDS011;39658;51.090;-1.786;2023-04-24T13:59:09;8.18;;;4.03;;
53261;SDS011;39658;51.090;-1.786;2023-04-24T14:01:36;8.57;;;3.80;;
53261;SDS011;39658;51.090;-1.786;2023-04-24T14:04:02;9.70;;;3.65;;
53261;SDS011;39658;51.090;-1.786;2023-04-24T14:06:29;9.13;;;4.28;;
53261;SDS011;39658;51.090;-1.786;2023-04-24T14:08:56;8.60;;;3.50;;
53261;SDS011;39658;51.090;-1.786;2023-04-24T14:11:24;8.23;;;3.88;;
53261;SDS011;39658;51.090;-1.786;2023-04-24T14:13:53;8.15;;;3.70;;
53261;SDS011;39658;51.090;-1.786;2023-04-24T14:16:21;6.20;;;3.20;;
53261;SDS011;39658;51.090;-1.786;2023-04-24T14:18:48;5.93;;;2.67;;
53261;SDS011;39658;51.090;-1.786;2023-04-24T14:21:15;6.05;;;2.78;;
53261;SDS011;39658;51.090;-1.786;2023-04-24T14:23:42;7.82;;;3.50;;